createdAt,value
2022-08-12T00:00:45.847Z,97836.31
2022-08-12T00:03:31.006Z,97831.25
2022-08-12T00:06:16.611Z,97823.25
2022-08-12T00:09:02.075Z,97821.00
2022-08-12T00:11:47.706Z,97819.69
2022-08-12T00:14:34.513Z,97824.09
2022-08-12T00:17:22.776Z,97823.00
2022-08-12T00:20:08.599Z,97819.63
2022-08-12T00:22:59.790Z,97820.69
2022-08-12T00:26:21.126Z,97821.06
2022-08-12T00:29:00.839Z,97817.94
2022-08-12T00:31:47.518Z,97821.34
2022-08-12T00:34:32.806Z,97819.00
2022-08-12T00:37:17.981Z,97815.22
2022-08-12T00:40:04.744Z,97822.38
2022-08-12T00:42:39.069Z,97814.38
2022-08-12T00:45:08.004Z,97819.38
2022-08-12T00:47:37.308Z,97819.00
2022-08-12T00:50:05.771Z,97812.69
2022-08-12T00:52:34.496Z,97820.19
2022-08-12T00:55:03.235Z,97820.84
2022-08-12T00:57:32.480Z,97815.19
2022-08-12T01:00:01.871Z,97822.47
2022-08-12T01:02:30.822Z,97815.53
2022-08-12T01:05:18.345Z,97817.47
2022-08-12T01:08:04.602Z,97819.72
2022-08-12T01:10:50.494Z,97813.19
2022-08-12T01:13:20.387Z,97815.09
2022-08-12T01:15:49.756Z,97807.25
2022-08-12T01:18:17.813Z,97814.38
2022-08-12T01:20:55.913Z,97808.13
2022-08-12T01:23:50.314Z,97808.94
2022-08-12T01:26:21.044Z,97814.97
2022-08-12T01:28:50.262Z,97815.63
2022-08-12T01:31:19.350Z,97807.63
2022-08-12T01:33:52.242Z,97808.66
2022-08-12T01:36:20.656Z,97807.59
2022-08-12T01:38:49.134Z,97806.78
2022-08-12T01:41:17.186Z,97809.28
2022-08-12T01:43:47.129Z,97811.53
2022-08-12T01:46:22.645Z,97817.84
2022-08-12T01:49:00.995Z,97808.56
2022-08-12T01:52:15.489Z,97807.78
2022-08-12T01:54:27.395Z,97802.22
2022-08-12T01:56:59.208Z,97804.34
2022-08-12T01:59:50.224Z,97797.09
2022-08-12T02:02:19.126Z,97799.00
2022-08-12T02:05:23.950Z,97804.25
2022-08-12T02:08:16.855Z,97800.38
2022-08-12T02:11:08.334Z,97794.56
2022-08-12T02:13:49.629Z,97797.84
2022-08-12T02:16:30.493Z,97800.72
2022-08-12T02:19:22.330Z,97793.78
2022-08-12T02:21:54.784Z,97804.41
2022-08-12T02:24:23.081Z,97797.69
2022-08-12T02:26:51.900Z,97799.28
2022-08-12T02:29:20.321Z,97804.56
2022-08-12T02:31:49.852Z,97806.56
2022-08-12T02:34:17.837Z,97802.28
2022-08-12T02:36:45.908Z,97809.59
2022-08-12T02:39:15.848Z,97807.72
2022-08-12T02:41:44.630Z,97812.69
2022-08-12T02:44:12.748Z,97812.50
2022-08-12T02:46:40.949Z,97809.06
2022-08-12T02:49:14.889Z,97810.75
2022-08-12T02:51:44.277Z,97811.13
2022-08-12T02:54:12.249Z,97809.00
2022-08-12T02:56:41.748Z,97803.84
2022-08-12T02:59:10.700Z,97801.84
2022-08-12T03:01:42.595Z,97807.25
2022-08-12T03:04:21.000Z,97801.41
2022-08-12T03:06:52.325Z,97804.13
2022-08-12T03:09:21.666Z,97808.06
2022-08-12T03:11:59.501Z,97806.59
2022-08-12T03:14:29.654Z,97801.34
2022-08-12T03:17:03.826Z,97801.44
2022-08-12T03:19:33.075Z,97806.22
2022-08-12T03:22:13.129Z,97799.94
2022-08-12T03:24:43.133Z,97806.34
2022-08-12T03:27:13.147Z,97812.22
2022-08-12T03:29:49.957Z,97809.06
2022-08-12T03:32:36.371Z,97814.38
2022-08-12T03:35:07.983Z,97810.00
2022-08-12T03:37:36.290Z,97811.41
2022-08-12T03:40:04.662Z,97812.81
2022-08-12T03:42:35.413Z,97812.63
2022-08-12T03:45:32.949Z,97808.88
2022-08-12T03:48:21.513Z,97812.81
2022-08-12T03:51:08.532Z,97809.25
2022-08-12T03:53:54.148Z,97819.19
2022-08-12T03:56:40.175Z,97813.94
2022-08-12T03:59:25.692Z,97824.19
2022-08-12T04:01:57.491Z,97826.06
2022-08-12T04:04:26.216Z,97826.25
2022-08-12T04:06:55.468Z,97820.72
2022-08-12T04:09:23.593Z,97825.56
2022-08-12T04:12:09.124Z,97825.56
2022-08-12T04:14:37.784Z,97828.03
2022-08-12T04:17:06.236Z,97815.06
2022-08-12T04:19:34.366Z,97813.09
2022-08-12T04:22:03.953Z,97821.06
2022-08-12T04:24:35.373Z,97821.91
2022-08-12T04:27:03.763Z,97817.00
2022-08-12T04:30:31.656Z,97820.03
2022-08-12T04:32:19.899Z,97818.06
2022-08-12T04:34:48.480Z,97819.19
2022-08-12T04:37:18.019Z,97818.34
2022-08-12T04:39:46.137Z,97817.59
2022-08-12T04:42:14.376Z,97823.88
2022-08-12T04:44:43.406Z,97816.88
2022-08-12T04:47:12.767Z,97820.63
2022-08-12T04:49:40.839Z,97819.09
2022-08-12T04:52:09.086Z,97824.00
2022-08-12T04:54:38.552Z,97827.75
2022-08-12T04:57:09.947Z,97820.34
2022-08-12T04:59:48.230Z,97816.59
2022-08-12T05:02:20.482Z,97817.22
2022-08-12T05:04:49.931Z,97810.19
2022-08-12T05:07:18.203Z,97810.81
2022-08-12T05:10:00.247Z,97811.31
2022-08-12T05:12:36.260Z,97817.38
2022-08-12T05:15:12.784Z,97814.00
2022-08-12T05:18:00.049Z,97810.28
2022-08-12T05:20:45.847Z,97822.63
2022-08-12T05:23:15.252Z,97813.06
2022-08-12T05:25:45.491Z,97812.09
2022-08-12T05:28:16.242Z,97819.16
2022-08-12T05:30:44.577Z,97812.63
2022-08-12T05:33:13.726Z,97813.47
2022-08-12T05:35:43.346Z,97816.38
2022-08-12T05:38:29.366Z,97824.06
2022-08-12T05:40:59.631Z,97817.53
2022-08-12T05:43:27.681Z,97822.53
2022-08-12T05:45:56.231Z,97824.94
2022-08-12T05:48:24.517Z,97825.66
2022-08-12T05:50:53.236Z,97830.91
2022-08-12T05:53:21.490Z,97831.34
2022-08-12T05:55:49.468Z,97825.41
2022-08-12T05:58:20.594Z,97832.56
2022-08-12T06:00:49.053Z,97825.75
2022-08-12T06:03:19.751Z,97823.72
2022-08-12T06:05:55.006Z,97824.81
2022-08-12T06:08:24.304Z,97822.13
2022-08-12T06:10:52.335Z,97831.59
2022-08-12T06:13:28.340Z,97832.44
2022-08-12T06:16:10.028Z,97834.41
2022-08-12T06:18:40.148Z,97835.91
2022-08-12T06:21:08.747Z,97836.59
2022-08-12T06:23:41.895Z,97831.94
2022-08-12T06:26:11.649Z,97830.84
2022-08-12T06:28:41.447Z,97834.19
2022-08-12T06:31:25.380Z,97834.88
2022-08-12T06:34:01.018Z,97832.69
2022-08-12T06:36:43.325Z,97826.63
2022-08-12T06:39:14.802Z,97834.47
2022-08-12T06:42:02.686Z,97827.91
2022-08-12T06:44:51.177Z,97832.00
2022-08-12T06:47:19.833Z,97832.63
2022-08-12T06:49:48.666Z,97832.88
2022-08-12T06:52:17.312Z,97827.69
2022-08-12T06:54:45.943Z,97829.38
2022-08-12T06:57:58.115Z,97829.19
2022-08-12T07:00:06.713Z,97827.75
2022-08-12T07:02:37.196Z,97831.53
2022-08-12T07:05:05.768Z,97828.59
2022-08-12T07:07:33.708Z,97829.47
2022-08-12T07:10:06.445Z,97820.66
2022-08-12T07:12:36.944Z,97825.31
2022-08-12T07:15:07.828Z,97829.72
2022-08-12T07:17:37.790Z,97825.50
2022-08-12T07:20:09.940Z,97832.88
2022-08-12T07:22:39.369Z,97835.22
2022-08-12T07:25:25.494Z,97828.63
2022-08-12T07:27:55.004Z,97836.03
2022-08-12T07:30:24.468Z,97831.81
2022-08-12T07:32:53.142Z,97834.94
2022-08-12T07:35:21.188Z,97829.00
2022-08-12T07:37:50.734Z,97839.53
2022-08-12T07:40:19.988Z,97833.78
2022-08-12T07:42:47.904Z,97835.47
2022-08-12T07:45:15.806Z,97835.31
2022-08-12T07:47:45.152Z,97839.06
2022-08-12T07:50:13.314Z,97838.41
2022-08-12T07:52:43.015Z,97835.34
2022-08-12T07:55:12.022Z,97835.16
2022-08-12T07:57:50.286Z,97844.00
2022-08-12T08:00:18.588Z,97846.97
2022-08-12T08:02:49.408Z,97832.88
2022-08-12T08:05:19.560Z,97844.41
2022-08-12T08:07:47.767Z,97840.31
2022-08-12T08:10:16.751Z,97848.16
2022-08-12T08:12:58.699Z,97844.63
2022-08-12T08:15:51.201Z,97848.16
2022-08-12T08:18:26.730Z,97842.47
2022-08-12T08:20:55.718Z,97842.13
2022-08-12T08:23:43.759Z,97846.41
2022-08-12T08:26:22.150Z,97846.16
2022-08-12T08:28:50.928Z,97848.47
2022-08-12T08:31:19.849Z,97852.16
2022-08-12T08:34:05.103Z,97840.88
2022-08-12T08:36:39.599Z,97848.97
2022-08-12T08:39:08.656Z,97841.53
2022-08-12T08:42:15.824Z,97846.97
2022-08-12T08:44:43.734Z,97844.69
2022-08-12T08:47:13.217Z,97843.84
2022-08-12T08:49:45.866Z,97838.47
2022-08-12T08:52:13.817Z,97850.75
2022-08-12T08:55:05.040Z,97846.81
2022-08-12T08:57:43.851Z,97842.78
2022-08-12T09:00:15.441Z,97844.31
2022-08-12T09:02:49.375Z,97826.13
2022-08-12T09:05:28.610Z,97841.53
2022-08-12T09:08:23.163Z,97840.47
2022-08-12T09:14:10.420Z,97832.91
2022-08-12T09:16:42.661Z,97831.91
2022-08-12T09:19:27.228Z,97826.06
2022-08-12T09:22:00.274Z,97833.56
2022-08-12T09:24:28.371Z,97830.19
2022-08-12T09:26:58.943Z,97827.97
2022-08-12T09:30:11.125Z,97831.13
2022-08-12T09:32:31.296Z,97820.56
2022-08-12T09:35:18.533Z,97828.19
2022-08-12T09:37:58.401Z,97821.06
2022-08-12T09:42:07.800Z,97818.31
2022-08-12T09:43:34.885Z,97819.97
2022-08-12T09:46:14.314Z,97814.53
2022-08-12T09:48:56.149Z,97808.78
2022-08-12T09:51:37.618Z,97810.84
2022-08-12T09:54:34.112Z,97803.31
2022-08-12T09:58:07.888Z,97813.03
2022-08-12T10:00:12.874Z,97809.34
2022-08-12T10:02:45.763Z,97804.00
2022-08-12T10:05:20.589Z,97801.19
2022-08-12T10:07:48.820Z,97801.25
2022-08-12T10:10:22.805Z,97794.47
2022-08-12T10:13:13.604Z,97792.56
2022-08-12T10:16:02.084Z,97793.78
2022-08-12T10:18:35.694Z,97790.88
2022-08-12T10:21:07.557Z,97780.34
2022-08-12T10:23:40.079Z,97784.06
2022-08-12T10:26:37.620Z,97778.41
2022-08-12T10:30:39.037Z,97778.09
2022-08-12T10:32:21.051Z,97775.81
2022-08-12T10:34:53.679Z,97778.19
2022-08-12T10:38:33.655Z,97767.53
2022-08-12T10:40:28.757Z,97756.75
2022-08-12T10:43:20.420Z,97761.41
2022-08-12T10:45:53.604Z,97747.41
2022-08-12T10:48:34.247Z,97753.50
2022-08-12T10:52:04.740Z,97752.91
2022-08-12T10:54:00.755Z,97747.63
2022-08-12T10:56:34.289Z,97743.69
2022-08-12T10:59:05.288Z,97747.47
2022-08-12T11:04:17.793Z,97742.19
2022-08-12T11:04:41.382Z,97736.59
2022-08-12T11:08:33.907Z,97729.84
2022-08-12T11:10:01.248Z,97721.53
2022-08-12T11:12:54.770Z,97712.03
2022-08-12T11:15:24.363Z,97714.88
2022-08-12T11:18:18.332Z,97709.63
2022-08-12T11:20:48.750Z,97708.28
2022-08-12T11:23:24.917Z,97706.03
2022-08-12T11:26:06.790Z,97703.22
2022-08-12T11:28:37.691Z,97692.19
2022-08-12T11:31:11.893Z,97695.25
2022-08-12T11:34:06.825Z,97686.09
2022-08-12T11:36:39.224Z,97681.69
2022-08-12T11:39:12.388Z,97680.38
2022-08-12T11:41:40.871Z,97685.91
2022-08-12T11:44:36.271Z,97678.00
2022-08-12T11:47:00.685Z,97687.38
2022-08-12T11:49:32.759Z,97674.81
2022-08-12T11:52:02.401Z,97678.06
2022-08-12T11:54:31.040Z,97671.19
2022-08-12T11:57:02.000Z,97675.81
2022-08-12T12:02:21.462Z,97671.00
2022-08-12T12:04:52.798Z,97667.81
2022-08-12T12:07:34.050Z,97665.50
2022-08-12T12:10:12.465Z,97669.59
2022-08-12T12:12:41.411Z,97665.66
2022-08-12T12:15:24.803Z,97663.31
2022-08-12T12:17:55.638Z,97662.00
2022-08-12T12:20:26.150Z,97662.81
2022-08-12T12:22:58.731Z,97651.69
2022-08-12T12:25:59.223Z,97660.16
2022-08-12T12:28:36.797Z,97654.00
2022-08-12T12:31:15.000Z,97642.19
2022-08-12T12:33:58.328Z,97647.72
2022-08-12T12:36:30.070Z,97640.66
2022-08-12T12:39:00.024Z,97641.88
2022-08-12T12:42:43.792Z,97632.94
2022-08-12T12:44:25.824Z,97632.41
2022-08-12T12:47:26.075Z,97633.31
2022-08-12T12:49:54.800Z,97628.03
2022-08-12T12:52:37.349Z,97626.59
2022-08-12T12:55:06.760Z,97612.66
2022-08-12T12:58:00.254Z,97613.03
2022-08-12T13:00:29.049Z,97604.78
2022-08-12T13:03:23.477Z,97612.09
2022-08-12T13:05:53.922Z,97612.38
2022-08-12T13:08:28.264Z,97614.22
2022-08-12T13:11:05.070Z,97603.78
2022-08-12T13:14:09.432Z,97610.22
2022-08-12T13:16:21.780Z,97606.09
2022-08-12T13:18:49.908Z,97595.56
2022-08-12T13:21:33.200Z,97600.91
2022-08-12T13:24:09.548Z,97594.66
2022-08-12T13:26:40.762Z,97596.41
2022-08-12T13:29:11.477Z,97591.97
2022-08-12T13:31:46.467Z,97593.09
2022-08-12T13:34:34.700Z,97599.59
2022-08-12T13:37:09.765Z,97594.19
2022-08-12T13:39:46.993Z,97582.16
2022-08-12T13:42:17.859Z,97589.19
2022-08-12T13:44:46.521Z,97599.28
2022-08-12T13:47:19.857Z,97593.88
2022-08-12T13:49:53.784Z,97605.00
2022-08-12T13:52:24.308Z,97595.03
2022-08-12T13:54:55.847Z,97599.41
2022-08-12T13:57:26.708Z,97591.03
2022-08-12T14:00:00.696Z,97589.59
2022-08-12T14:02:29.730Z,97578.94
2022-08-12T14:05:01.503Z,97584.88
2022-08-12T14:07:48.782Z,97572.69
2022-08-12T14:10:37.421Z,97572.91
2022-08-12T14:13:10.456Z,97570.63
2022-08-12T14:15:50.560Z,97582.38
2022-08-12T14:18:20.072Z,97559.16
2022-08-12T14:20:48.677Z,97562.53
2022-08-12T14:24:05.745Z,97565.06
2022-08-12T14:26:11.672Z,97568.53
2022-08-12T14:28:40.040Z,97571.50
2022-08-12T14:31:18.295Z,97555.28
2022-08-12T14:33:48.441Z,97553.28
2022-08-12T14:36:20.236Z,97558.94
2022-08-12T14:38:52.563Z,97560.91
2022-08-12T14:41:21.396Z,97549.94
2022-08-12T14:44:04.625Z,97560.59
2022-08-12T14:46:40.139Z,97564.22
2022-08-12T14:50:00.605Z,97563.31
2022-08-12T14:53:11.372Z,97566.84
2022-08-12T14:57:57.204Z,97554.47
2022-08-12T15:00:52.243Z,97557.84
2022-08-12T15:03:23.339Z,97550.09
2022-08-12T15:06:03.547Z,97550.25
2022-08-12T15:08:35.830Z,97549.97
2022-08-12T15:11:05.590Z,97546.50
2022-08-12T15:13:39.608Z,97546.25
2022-08-12T15:16:12.568Z,97546.94
2022-08-12T15:18:55.030Z,97548.56
2022-08-12T15:21:25.785Z,97542.94
2022-08-12T15:24:13.713Z,97535.75
2022-08-12T15:26:46.679Z,97541.97
2022-08-12T15:29:18.473Z,97536.44
2022-08-12T15:32:01.903Z,97532.38
2022-08-12T15:34:33.439Z,97531.81
2022-08-12T15:37:01.855Z,97526.59
2022-08-12T15:39:29.855Z,97529.78
2022-08-12T15:42:04.384Z,97529.22
2022-08-12T15:44:37.739Z,97528.91
2022-08-12T15:47:10.173Z,97531.13
2022-08-12T15:49:43.115Z,97527.59
2022-08-12T15:52:27.366Z,97529.72
2022-08-12T15:54:58.918Z,97520.66
2022-08-12T15:57:33.248Z,97528.94
2022-08-12T16:00:07.090Z,97523.22
2022-08-12T16:02:42.046Z,97529.16
2022-08-12T16:06:11.213Z,97528.03
2022-08-12T16:08:09.404Z,97521.19
2022-08-12T16:13:34.152Z,97534.63
2022-08-12T16:16:03.658Z,97522.63
2022-08-12T16:18:33.970Z,97532.78
2022-08-12T16:21:01.958Z,97524.56
2022-08-12T16:23:51.158Z,97523.69
2022-08-12T16:26:32.335Z,97524.47
2022-08-12T16:29:15.199Z,97520.59
2022-08-12T16:31:44.773Z,97523.66
2022-08-12T16:34:25.825Z,97518.13
2022-08-12T16:37:07.416Z,97525.09
2022-08-12T16:40:00.404Z,97515.06
2022-08-12T16:42:28.114Z,97519.34
2022-08-12T16:45:02.229Z,97513.84
2022-08-12T16:47:43.938Z,97506.97
2022-08-12T16:50:22.136Z,97493.41
2022-08-12T16:53:02.386Z,97503.22
2022-08-12T16:55:38.104Z,97500.97
2022-08-12T16:58:28.327Z,97508.09
2022-08-12T17:01:02.071Z,97502.44
2022-08-12T17:03:36.704Z,97506.84
2022-08-12T17:06:22.102Z,97503.03
2022-08-12T17:09:08.715Z,97497.91
2022-08-12T17:11:46.887Z,97500.53
2022-08-12T17:14:23.117Z,97499.59
2022-08-12T17:16:56.023Z,97502.94
2022-08-12T17:20:29.372Z,97497.47
2022-08-12T17:22:15.508Z,97495.91
2022-08-12T17:24:54.686Z,97499.75
2022-08-12T17:27:26.341Z,97507.19
2022-08-12T17:30:01.524Z,97505.84
2022-08-12T17:32:33.699Z,97507.09
2022-08-12T17:35:19.872Z,97502.09
2022-08-12T17:37:48.938Z,97498.50
2022-08-12T17:40:36.293Z,97500.47
2022-08-12T17:43:57.832Z,97508.13
2022-08-12T17:45:58.906Z,97509.00
2022-08-12T17:48:34.454Z,97505.78
2022-08-12T17:51:07.098Z,97506.34
2022-08-12T17:54:06.199Z,97507.28
2022-08-12T17:56:31.907Z,97504.44
2022-08-12T17:59:00.472Z,97510.94
2022-08-12T18:01:29.389Z,97512.09
2022-08-12T18:04:21.943Z,97512.56
2022-08-12T18:06:52.287Z,97519.84
2022-08-12T18:09:21.163Z,97517.53
2022-08-12T18:12:08.374Z,97521.50
2022-08-12T18:14:37.967Z,97528.47
2022-08-12T18:17:09.500Z,97530.06
2022-08-12T18:20:05.694Z,97537.25
2022-08-12T18:22:30.818Z,97538.22
2022-08-12T18:26:13.237Z,97541.06
2022-08-12T18:28:15.671Z,97538.56
2022-08-12T18:30:52.588Z,97546.56
2022-08-12T18:33:25.526Z,97552.56
2022-08-12T18:35:59.714Z,97551.91
2022-08-12T18:38:30.409Z,97552.75
2022-08-12T18:41:21.089Z,97563.25
2022-08-12T18:43:59.235Z,97561.22
2022-08-12T18:46:33.928Z,97564.19
2022-08-12T18:49:18.058Z,97567.31
2022-08-12T18:51:55.475Z,97562.03
2022-08-12T18:54:32.324Z,97573.44
2022-08-12T18:57:16.332Z,97568.31
2022-08-12T18:59:59.697Z,97566.28
2022-08-12T19:02:33.011Z,97568.19
2022-08-12T19:05:10.819Z,97571.81
2022-08-12T19:08:38.307Z,97572.28
2022-08-12T19:14:42.163Z,97577.16
2022-08-12T19:17:11.553Z,97577.63
2022-08-12T19:19:41.541Z,97581.56
2022-08-12T19:22:10.506Z,97585.75
2022-08-12T19:24:57.474Z,97586.88
2022-08-12T19:27:25.466Z,97583.44
2022-08-12T19:30:06.954Z,97583.63
2022-08-12T19:32:37.346Z,97585.75
2022-08-12T19:35:58.997Z,97586.81
2022-08-12T19:38:03.701Z,97593.69
2022-08-12T19:40:37.343Z,97587.75
2022-08-12T19:43:13.459Z,97583.19
2022-08-12T19:45:50.530Z,97591.53
2022-08-12T19:48:19.815Z,97595.19
2022-08-12T19:50:50.175Z,97587.38
2022-08-12T19:53:20.209Z,97597.56
2022-08-12T19:55:53.349Z,97601.41
2022-08-12T19:58:21.689Z,97593.31
2022-08-12T20:00:53.436Z,97595.81
2022-08-12T20:03:38.717Z,97597.91
2022-08-12T20:06:15.720Z,97600.06
2022-08-12T20:08:56.073Z,97605.75
2022-08-12T20:12:13.644Z,97613.78
2022-08-12T20:14:50.018Z,97607.72
2022-08-12T20:35:11.695Z,97610.97
2022-08-12T20:38:04.973Z,97604.69
2022-08-12T20:40:38.056Z,97609.72
2022-08-12T20:43:06.865Z,97609.13
2022-08-12T20:45:44.787Z,97607.00
2022-08-12T20:48:26.164Z,97609.34
2022-08-12T20:50:58.014Z,97607.44
2022-08-12T20:53:58.260Z,97612.91
2022-08-12T20:56:30.692Z,97611.06
2022-08-12T20:59:01.434Z,97614.19
2022-08-12T21:01:46.593Z,97616.53
2022-08-12T21:04:35.543Z,97615.44
2022-08-12T21:07:09.254Z,97605.78
2022-08-12T21:09:41.498Z,97606.63
2022-08-12T21:12:27.741Z,97613.97
2022-08-12T21:15:17.037Z,97607.88
2022-08-12T21:18:01.148Z,97618.59
2022-08-12T21:20:38.641Z,97612.72
2022-08-12T21:23:07.591Z,97612.50
2022-08-12T21:25:35.845Z,97617.53
2022-08-12T21:28:13.124Z,97625.13
2022-08-12T21:31:11.136Z,97624.47
2022-08-12T21:33:32.086Z,97624.69
2022-08-12T21:36:22.857Z,97626.34
2022-08-12T21:39:02.067Z,97624.44
2022-08-12T21:41:50.060Z,97624.69
2022-08-12T21:44:32.470Z,97636.03
2022-08-12T21:47:20.529Z,97631.59
2022-08-12T21:49:55.186Z,97630.56
2022-08-12T21:52:28.311Z,97631.16
2022-08-12T21:55:03.897Z,97633.94
2022-08-12T21:57:50.819Z,97633.91
2022-08-12T22:00:23.958Z,97633.28
2022-08-12T22:03:54.956Z,97634.34
2022-08-12T22:06:42.605Z,97638.34
2022-08-12T22:09:16.976Z,97635.19
2022-08-12T22:11:56.146Z,97636.63
2022-08-12T22:14:25.448Z,97635.81
2022-08-12T22:16:54.352Z,97640.66
2022-08-12T22:19:22.785Z,97636.63
2022-08-12T22:21:53.617Z,97644.41
2022-08-12T22:24:26.348Z,97640.00
2022-08-12T22:26:57.890Z,97632.00
2022-08-12T22:29:43.326Z,97635.59
2022-08-12T22:32:12.042Z,97637.47
2022-08-12T22:34:40.635Z,97632.59
2022-08-12T22:37:20.158Z,97636.19
2022-08-12T22:39:49.798Z,97632.41
2022-08-12T22:42:37.279Z,97629.66
2022-08-12T22:45:25.086Z,97627.78
2022-08-12T22:47:56.441Z,97635.34
2022-08-12T22:50:29.410Z,97633.63
2022-08-12T22:53:15.646Z,97640.09
2022-08-12T22:55:59.667Z,97636.97
2022-08-12T22:58:40.292Z,97633.00
2022-08-12T23:01:11.217Z,97633.53
2022-08-12T23:03:49.580Z,97627.88
2022-08-12T23:06:19.965Z,97626.38
2022-08-12T23:08:48.407Z,97627.03
2022-08-12T23:11:23.199Z,97625.16
2022-08-12T23:13:55.470Z,97624.91
2022-08-12T23:16:29.164Z,97625.75
2022-08-12T23:19:09.256Z,97613.56
2022-08-12T23:21:40.237Z,97617.34
2022-08-12T23:24:10.103Z,97617.78
2022-08-12T23:26:57.784Z,97621.97
2022-08-12T23:29:42.653Z,97612.31
2022-08-12T23:32:13.484Z,97613.97
2022-08-12T23:35:03.508Z,97614.81
2022-08-12T23:37:47.673Z,97610.00
2022-08-12T23:40:22.147Z,97614.59
2022-08-12T23:42:52.047Z,97609.59
2022-08-12T23:45:30.622Z,97608.50
2022-08-12T23:48:00.052Z,97610.19
2022-08-12T23:50:34.372Z,97606.41
2022-08-12T23:53:05.809Z,97614.78
2022-08-12T23:55:40.466Z,97613.31
2022-08-12T23:58:20.571Z,97611.22
